MET7781 - Hamburg to Keflavik

Airbus A321-232
665MT - Sharklet Equipped
3 hrs 00 mins
1171 nm
Ferry - M

Departure

Departing from
Hamburg (XFW)
Departure gate
Delivery Centre
Scheduled Departure
GMT 0700
Local 0800
METAR
TAF
  • No charts available

Arrival

Arriving at
Keflavik (KEF)
Arrival gate
Ramp
Scheduled Arrival
GMT 1000
Local 1000
METAR BIKF 230000Z 11006KT 2000 SHGS SCT019CB BKN040 M00/M00 Q0988
TAF TAF BIKF 222226Z 2300/2324 14008KT 9999 -SHSN SCT015 BKN025 TX02/2315Z TNM03/2309Z TEMPO 2300/2302 0800 SHSN BKN007CB OVC010 BECMG 2307/2309 14020KT BECMG 2312/2313 14030KT 5000 RASN BKN010 OVC020 BECMG 2314/2316 23025KT SHSN BECMG 2321/2324 21018KT

Route Map

Planning Resources

LBE UP992 VES U613 VALDI ING KEILA2
DCT LBV UP992 ATTUS P992 BAVTA P613 VALDI/M076F380 G3 NASBU DCT
Route:
OFP Layout:
Units:
Detailed Navlog:
ETOPS Planning:
Plan Stepclimbs:
Runway Analysis:
Include NOTAMS:
FIR NOTAMS:
Flight Maps:

Popularity

Hub Current Bids PiReps this month Total PiReps
KMCI 0 0 1
KLAX 0 0 0
KBOS 0 0 1